Forside
METAR-TAF:

METAR-TAF

Lufthavne :

Bluefield, West Virginia, USA

Breddekreds: 37-17-45N, længdekreds: 081-12-28W, højde: 871 m

Aktuelle vejr

Denne rapport blev lavet for 1 time og 6 minutter siden, kl. 16:52 UTC
Vind 7 kt fra vest
Temperatur 8°C
Fugtighed 34%
Tryk 1023 hPa
Sigt: 16.1 km
Nogle få skyer i en højde af 9500 ft

METAR: KBLF 231652Z AUTO 26007KT 10SM FEW095 08/M07 A3020 RMK AO2 SLP235 T00831072 TSNO

Tid: 12:58 (17:58 UTC)

Vejrudsigter

Denne rapport blev lavet for 6 timer og 38 minutter siden, kl. 11:20 UTC
Foreløbig gælder fra 23 på 12 UTC til 24 på 12 UTC
Vind 5 kt fra vestsydvest
Sigt: 10 km
skyfri
Fra 23 på 2100 UTC
Vind 5 kt fra vestsydvest
Sigt: 10 km
Spredte skyer i en højde af 7000 ft
Fra 24 på 0600 UTC
Vind 3 kt fra vestsydvest
Sigt: 10 km
Brudte skyer i en højde af 14000 ft

TAF: KBLF 231120Z 2312/2412 24005KT P6SM SKC FM232100 24005KT P6SM SCT070 FM240600 24003KT P6SM BKN140

Vejrobservationer og prognoser fra mere end 4000 lufthavne (METAR og TAF).

De gule og røde prikker repræsenterer de meteorologiske stationer.

Flyt musen over at se navnet på stationen.

Så klik over at se vejr observationer og prognoser.

At skifte det kort: Klik på de grønne knapper med et sort kors for at zoome ind; på den grønne knap med en bindestreg for at zoome ud; eller på de grønne pile for tilstødende kort.


METAR-TAF: